Time;durP1;ratioP1;P1;durP2;ratioP2;P2;SDS_P1;SDS_P2;PMS_P1;PMS_P2;Temp;Humidity;BMP_temperature;BMP_pressure;BME280_temperature;BME280_humidity;BME280_pressure;Samples;Min_cycle;Max_cycle;Signal;HPM_P1;HPM_P2
2022/09/14 05:59:42;;;;;;;2.57;1.50;;;;;;;;;;10597785;27;20481;-83
2022/09/14 06:04:43;;;;;;;4.60;1.50;;;;;;;;;;10591623;28;20047;-84
2022/09/14 06:09:44;;;;;;;3.45;1.50;;;;;;;;;;10592277;28;20127;-84
2022/09/14 06:21:02;;;;;;;2.35;0.90;;;;;;;;;;10508432;28;20013;-85
2022/09/14 06:26:07;;;;;;;1.70;1.05;;;;;;;;;;10552384;28;20032;-84
2022/09/14 06:31:11;;;;;;;2.35;1.10;;;;;;;;;;10592040;28;20016;-83
2022/09/14 06:36:47;;;;;;;5.63;1.80;;;;;;;;;;10594201;28;20089;-84
2022/09/14 07:09:47;;;;;;;2.53;1.50;;;;;;;;;;10477210;28;20068;-84
2022/09/14 07:14:48;;;;;;;2.72;1.20;;;;;;;;;;10470970;28;20037;-84
2022/09/14 07:19:49;;;;;;;3.13;1.67;;;;;;;;;;10475187;28;20037;-83
2022/09/14 07:24:56;;;;;;;4.00;2.00;;;;;;;;;;10475088;28;20106;-86
2022/09/14 07:29:57;;;;;;;5.57;3.05;;;;;;;;;;10477146;28;20100;-85
2022/09/14 07:34:58;;;;;;;5.50;2.60;;;;;;;;;;10478471;28;20048;-84
2022/09/14 07:40:05;;;;;;;5.00;2.80;;;;;;;;;;10487294;28;20478;-84
2022/09/14 07:45:06;;;;;;;5.75;3.28;;;;;;;;;;10485362;28;20102;-84
2022/09/14 07:50:08;;;;;;;6.40;4.28;;;;;;;;;;10475939;28;20466;-84
2022/09/14 07:55:11;;;;;;;7.55;4.97;;;;;;;;;;10460083;28;20041;-84
2022/09/14 08:00:13;;;;;;;10.90;8.88;;;;;;;;;;10478585;28;20143;-84
2022/09/14 08:05:14;;;;;;;10.05;5.80;;;;;;;;;;10478548;28;20036;-84
2022/09/14 08:10:15;;;;;;;10.77;8.38;;;;;;;;;;10477408;28;20398;-84
2022/09/14 08:15:17;;;;;;;5.47;3.75;;;;;;;;;;10476543;28;20061;-84
2022/09/14 08:20:18;;;;;;;6.95;3.88;;;;;;;;;;10474577;28;20033;-85
2022/09/14 08:25:19;;;;;;;4.43;2.47;;;;;;;;;;10475398;28;20036;-84
2022/09/14 08:30:20;;;;;;;7.47;4.63;;;;;;;;;;10476959;28;20116;-84
2022/09/14 08:35:21;;;;;;;5.05;2.17;;;;;;;;;;10473219;28;20045;-84
2022/09/14 08:40:22;;;;;;;5.50;3.30;;;;;;;;;;10472975;28;20083;-84
2022/09/14 08:45:23;;;;;;;6.93;4.65;;;;;;;;;;10473580;28;20129;-84
2022/09/14 08:50:24;;;;;;;6.25;4.32;;;;;;;;;;10473530;28;20040;-84
2022/09/14 08:55:31;;;;;;;6.38;4.75;;;;;;;;;;10471756;28;20045;-84
2022/09/14 09:01:04;;;;;;;4.75;2.72;;;;;;;;;;10471991;28;20037;-85
2022/09/14 09:06:11;;;;;;;5.13;2.65;;;;;;;;;;10427464;28;20209;-83
2022/09/14 09:11:14;;;;;;;5.78;2.55;;;;;;;;;;10470312;28;20056;-84
2022/09/14 09:16:18;;;;;;;3.35;2.10;;;;;;;;;;10469726;28;20036;-85
2022/09/14 09:21:29;;;;;;;4.20;2.00;;;;;;;;;;10468144;28;20119;-84
2022/09/14 09:26:32;;;;;;;3.45;1.60;;;;;;;;;;10468020;28;20041;-84
2022/09/14 09:31:44;;;;;;;3.50;1.80;;;;;;;;;;10468863;28;20040;-84
2022/09/14 09:36:47;;;;;;;3.80;2.00;;;;;;;;;;10469004;28;20040;-84
2022/09/14 09:41:50;;;;;;;2.67;1.48;;;;;;;;;;10469520;28;20101;-83
2022/09/14 09:46:56;;;;;;;3.35;1.70;;;;;;;;;;10468125;28;20041;-84
2022/09/14 09:52:23;;;;;;;4.38;2.17;;;;;;;;;;10471944;28;20025;-83
2022/09/14 09:57:35;;;;;;;5.00;2.60;;;;;;;;;;10474438;28;20127;-83
2022/09/14 10:02:41;;;;;;;3.60;2.30;;;;;;;;;;10470023;28;20063;-85
2022/09/14 10:07:54;;;;;;;4.30;2.10;;;;;;;;;;10480907;28;20033;-86
2022/09/14 10:12:59;;;;;;;4.07;1.65;;;;;;;;;;10478366;28;20114;-85
2022/09/14 10:18:13;;;;;;;3.05;1.80;;;;;;;;;;10477084;28;20037;-86
2022/09/14 10:23:22;;;;;;;3.88;1.70;;;;;;;;;;10478307;28;20039;-85
2022/09/14 10:28:35;;;;;;;4.50;1.75;;;;;;;;;;10475362;28;20128;-84
2022/09/14 10:33:36;;;;;;;4.15;1.90;;;;;;;;;;10487557;28;20032;-81
2022/09/14 10:38:38;;;;;;;4.88;2.55;;;;;;;;;;10490438;28;20055;-86
2022/09/14 10:44:04;;;;;;;3.70;2.92;;;;;;;;;;10483520;28;20120;-83
2022/09/14 10:49:14;;;;;;;4.82;2.80;;;;;;;;;;10491329;28;20094;-83
2022/09/14 10:54:25;;;;;;;3.83;2.70;;;;;;;;;;10497072;28;20041;-81
2022/09/14 10:59:47;;;;;;;4.18;2.63;;;;;;;;;;10492732;28;20041;-82
2022/09/14 11:04:48;;;;;;;4.20;1.95;;;;;;;;;;10486009;28;20055;-84
2022/09/14 11:09:56;;;;;;;4.68;3.03;;;;;;;;;;10478609;28;20033;-82
2022/09/14 11:15:02;;;;;;;5.57;4.30;;;;;;;;;;10479002;28;20114;-83
2022/09/14 11:20:12;;;;;;;5.85;4.07;;;;;;;;;;10481955;28;20068;-83
2022/09/14 11:25:16;;;;;;;7.85;5.07;;;;;;;;;;10479967;28;20060;-83
2022/09/14 11:30:19;;;;;;;8.35;4.38;;;;;;;;;;10479793;28;20128;-83
2022/09/14 11:35:24;;;;;;;6.30;3.75;;;;;;;;;;10478996;28;20052;-82
2022/09/14 11:40:37;;;;;;;4.32;2.85;;;;;;;;;;10473377;28;20036;-82
2022/09/14 11:45:44;;;;;;;4.47;2.72;;;;;;;;;;10477861;28;20025;-83
2022/09/14 11:50:46;;;;;;;3.53;2.20;;;;;;;;;;10479762;28;20226;-85
2022/09/14 11:55:49;;;;;;;5.38;2.75;;;;;;;;;;10503013;28;20041;-82
2022/09/14 12:01:03;;;;;;;5.30;3.53;;;;;;;;;;10504556;28;20097;-83
2022/09/14 12:06:24;;;;;;;3.47;2.53;;;;;;;;;;10502551;28;20044;-81
2022/09/14 12:11:30;;;;;;;3.50;2.13;;;;;;;;;;10493506;28;20367;-83
2022/09/14 12:16:31;;;;;;;3.80;1.90;;;;;;;;;;10467685;28;20051;-82
2022/09/14 12:21:32;;;;;;;4.50;2.05;;;;;;;;;;10468200;28;20118;-82
2022/09/14 12:26:34;;;;;;;3.47;1.50;;;;;;;;;;10470979;28;20044;-83
2022/09/14 12:31:58;;;;;;;5.22;1.85;;;;;;;;;;10469466;28;20059;-81
2022/09/14 12:37:01;;;;;;;5.30;1.60;;;;;;;;;;10433650;28;20037;-84
2022/09/14 12:42:04;;;;;;;5.07;1.75;;;;;;;;;;10470838;28;20444;-84
2022/09/14 12:47:24;;;;;;;6.22;2.03;;;;;;;;;;10474187;28;20060;-83
2022/09/14 12:52:45;;;;;;;4.00;1.90;;;;;;;;;;10470324;28;20121;-84
2022/09/14 12:57:51;;;;;;;6.18;1.83;;;;;;;;;;10456422;28;20446;-83
2022/09/14 13:03:14;;;;;;;3.45;1.58;;;;;;;;;;10484963;28;20037;-83
2022/09/14 13:20:08;;;;;;;4.65;1.45;;;;;;;;;;10478624;28;20029;-83
2022/09/14 13:36:31;;;;;;;6.53;2.30;;;;;;;;;;10709212;23;20534;-82
2022/09/14 13:41:57;;;;;;;3.42;1.90;;;;;;;;;;10449529;28;20053;-82
2022/09/14 13:47:03;;;;;;;4.60;1.90;;;;;;;;;;10429111;28;20034;-83
2022/09/14 13:52:23;;;;;;;3.47;1.67;;;;;;;;;;10435508;28;20043;-83
2022/09/14 13:57:24;;;;;;;6.00;1.70;;;;;;;;;;10428660;28;20029;-82
2022/09/14 14:08:32;;;;;;;4.03;1.50;;;;;;;;;;10365909;28;20095;-81
2022/09/14 14:13:55;;;;;;;2.65;1.00;;;;;;;;;;10430189;28;20045;-82
2022/09/14 14:18:56;;;;;;;2.92;1.08;;;;;;;;;;10431920;28;20105;-81
2022/09/14 14:24:36;;;;;;;2.92;1.10;;;;;;;;;;10429658;28;20029;-81
2022/09/14 14:30:05;;;;;;;2.10;1.10;;;;;;;;;;10339639;28;20491;-82
2022/09/14 14:35:34;;;;;;;7.32;1.65;;;;;;;;;;10433542;28;20391;-81
2022/09/14 14:40:35;;;;;;;5.57;1.30;;;;;;;;;;10426712;28;20049;-82
2022/09/14 14:45:36;;;;;;;3.35;1.42;;;;;;;;;;10432150;28;20049;-82
2022/09/14 14:50:38;;;;;;;3.15;1.25;;;;;;;;;;10433655;28;20040;-84
2022/09/14 14:55:39;;;;;;;2.58;1.25;;;;;;;;;;10428710;28;20065;-82
2022/09/14 15:00:40;;;;;;;2.53;1.40;;;;;;;;;;10427759;28;20053;-83
2022/09/14 15:05:43;;;;;;;1.92;1.15;;;;;;;;;;10430928;28;20101;-82
2022/09/14 15:10:45;;;;;;;3.33;1.30;;;;;;;;;;10429282;28;20029;-82
2022/09/14 15:15:46;;;;;;;2.83;1.85;;;;;;;;;;10428946;28;20033;-82
2022/09/14 15:20:47;;;;;;;3.50;1.80;;;;;;;;;;10427964;28;20041;-82
2022/09/14 15:25:50;;;;;;;3.88;1.70;;;;;;;;;;10429384;28;20033;-83
2022/09/14 15:30:51;;;;;;;3.42;1.65;;;;;;;;;;10433818;28;20072;-83
2022/09/14 15:36:00;;;;;;;2.50;1.40;;;;;;;;;;10428800;28;20045;-82
2022/09/14 15:41:01;;;;;;;2.72;1.40;;;;;;;;;;10428217;28;20048;-82
2022/09/14 15:46:05;;;;;;;2.00;1.10;;;;;;;;;;10429090;28;20038;-82
2022/09/14 15:51:18;;;;;;;3.00;1.60;;;;;;;;;;10438702;28;20038;-83
2022/09/14 15:56:20;;;;;;;5.38;1.48;;;;;;;;;;10427927;28;20192;-83
2022/09/14 16:01:21;;;;;;;4.38;2.00;;;;;;;;;;10429687;28;20148;-83
2022/09/14 16:06:34;;;;;;;5.95;2.90;;;;;;;;;;10428077;28;20045;-82
2022/09/14 16:11:37;;;;;;;4.45;2.55;;;;;;;;;;10420238;28;20065;-82
2022/09/14 16:16:42;;;;;;;4.65;2.65;;;;;;;;;;10424016;28;20044;-82
2022/09/14 16:21:43;;;;;;;6.38;2.38;;;;;;;;;;10423135;28;20038;-83
2022/09/14 16:26:51;;;;;;;3.28;2.00;;;;;;;;;;10437303;28;20400;-86
2022/09/14 16:32:12;;;;;;;5.63;1.83;;;;;;;;;;10429662;28;20042;-87
2022/09/14 16:54:33;;;;;;;2.30;1.58;;;;;;;;;;10427795;28;20037;-87
2022/09/14 16:59:53;;;;;;;2.70;1.55;;;;;;;;;;10427266;28;20037;-87
2022/09/14 17:05:25;;;;;;;2.67;1.60;;;;;;;;;;10346578;28;20093;-88
2022/09/14 17:10:26;;;;;;;2.85;1.60;;;;;;;;;;10409261;28;20046;-87
2022/09/14 17:15:28;;;;;;;2.13;1.40;;;;;;;;;;10430991;28;20387;-87
2022/09/14 17:20:29;;;;;;;3.00;1.50;;;;;;;;;;10423345;28;20038;-87
2022/09/14 17:25:29;;;;;;;2.35;1.20;;;;;;;;;;10419953;28;20175;-87
2022/09/14 17:30:32;;;;;;;2.28;1.55;;;;;;;;;;10420410;28;20111;-87
2022/09/14 17:35:33;;;;;;;3.00;1.40;;;;;;;;;;10427557;28;20113;-87
2022/09/14 17:40:34;;;;;;;2.30;1.00;;;;;;;;;;10458184;28;20065;-86
2022/09/14 17:45:36;;;;;;;1.38;1.10;;;;;;;;;;10433944;28;20081;-87
2022/09/14 17:50:38;;;;;;;2.90;1.30;;;;;;;;;;10420513;28;20061;-87
2022/09/14 17:55:39;;;;;;;2.67;1.75;;;;;;;;;;10424501;28;20048;-86
2022/09/14 18:00:40;;;;;;;2.15;1.17;;;;;;;;;;10421200;28;20033;-87
2022/09/14 18:05:41;;;;;;;2.35;1.40;;;;;;;;;;10419313;28;20052;-87
2022/09/14 18:10:43;;;;;;;1.70;1.38;;;;;;;;;;10419870;28;20105;-87
2022/09/14 18:15:44;;;;;;;2.40;1.33;;;;;;;;;;10432870;28;20033;-86
2022/09/14 18:20:45;;;;;;;2.22;1.50;;;;;;;;;;10427696;28;20132;-86
2022/09/14 18:25:46;;;;;;;3.25;1.60;;;;;;;;;;10417287;28;20487;-86
2022/09/14 18:30:47;;;;;;;2.42;1.60;;;;;;;;;;10428111;28;20101;-87
2022/09/14 18:35:51;;;;;;;2.70;1.70;;;;;;;;;;10420523;28;20076;-87
2022/09/14 18:40:52;;;;;;;2.15;1.48;;;;;;;;;;10416891;28;20040;-87
2022/09/14 18:45:57;;;;;;;3.40;2.08;;;;;;;;;;10476940;23;20072;-87
2022/09/14 18:51:03;;;;;;;2.67;2.05;;;;;;;;;;10425645;28;20026;-87
2022/09/14 18:56:06;;;;;;;2.83;2.00;;;;;;;;;;10462068;28;20044;-88
2022/09/14 19:01:07;;;;;;;2.30;1.80;;;;;;;;;;10462567;28;20036;-87
2022/09/14 19:06:15;;;;;;;3.08;1.80;;;;;;;;;;10470971;28;20136;-88
2022/09/14 19:11:17;;;;;;;3.00;1.80;;;;;;;;;;10472315;28;20029;-87
2022/09/14 19:16:18;;;;;;;3.00;1.83;;;;;;;;;;10480339;28;20056;-85
2022/09/14 19:21:20;;;;;;;2.85;1.50;;;;;;;;;;10487181;28;20122;-85
